sensor_id;sensor_type;location;lat;lon;timestamp;P1;durP1;ratioP1;P2;durP2;ratioP2
23676;SDS011;31493;49.058;12.190;2023-01-29T00:01:37;6.68;;;3.83;;
23676;SDS011;31493;49.058;12.190;2023-01-29T00:04:04;7.60;;;4.78;;
23676;SDS011;31493;49.058;12.190;2023-01-29T00:06:31;6.68;;;4.40;;
23676;SDS011;31493;49.058;12.190;2023-01-29T00:08:58;6.95;;;4.10;;
23676;SDS011;31493;49.058;12.190;2023-01-29T00:11:26;6.80;;;4.13;;
23676;SDS011;31493;49.058;12.190;2023-01-29T00:13:53;6.00;;;3.85;;
23676;SDS011;31493;49.058;12.190;2023-01-29T00:16:20;6.70;;;3.83;;
23676;SDS011;31493;49.058;12.190;2023-01-29T00:18:48;6.18;;;3.90;;
23676;SDS011;31493;49.058;12.190;2023-01-29T00:21:16;4.95;;;3.47;;
23676;SDS011;31493;49.058;12.190;2023-01-29T00:23:45;4.40;;;3.50;;
23676;SDS011;31493;49.058;12.190;2023-01-29T00:26:12;5.13;;;3.65;;
23676;SDS011;31493;49.058;12.190;2023-01-29T00:28:39;5.70;;;3.70;;
23676;SDS011;31493;49.058;12.190;2023-01-29T00:31:07;5.13;;;3.70;;
23676;SDS011;31493;49.058;12.190;2023-01-29T00:33:35;4.93;;;3.38;;
23676;SDS011;31493;49.058;12.190;2023-01-29T00:36:04;5.50;;;3.45;;
23676;SDS011;31493;49.058;12.190;2023-01-29T00:38:33;4.88;;;3.70;;
23676;SDS011;31493;49.058;12.190;2023-01-29T00:41:04;10.77;;;6.15;;
23676;SDS011;31493;49.058;12.190;2023-01-29T00:43:49;8.02;;;5.78;;
23676;SDS011;31493;49.058;12.190;2023-01-29T00:46:33;7.63;;;5.38;;
23676;SDS011;31493;49.058;12.190;2023-01-29T00:49:00;9.98;;;5.78;;
23676;SDS011;31493;49.058;12.190;2023-01-29T00:51:29;10.45;;;5.75;;
23676;SDS011;31493;49.058;12.190;2023-01-29T00:53:56;7.50;;;5.20;;
23676;SDS011;31493;49.058;12.190;2023-01-29T00:56:23;6.15;;;4.57;;
23676;SDS011;31493;49.058;12.190;2023-01-29T00:58:50;7.75;;;5.03;;
23676;SDS011;31493;49.058;12.190;2023-01-29T01:01:18;6.75;;;4.60;;
23676;SDS011;31493;49.058;12.190;2023-01-29T01:04:05;6.78;;;4.85;;
23676;SDS011;31493;49.058;12.190;2023-01-29T01:06:35;9.25;;;5.20;;
23676;SDS011;31493;49.058;12.190;2023-01-29T01:09:02;6.93;;;4.75;;
23676;SDS011;31493;49.058;12.190;2023-01-29T01:11:47;5.80;;;4.25;;
23676;SDS011;31493;49.058;12.190;2023-01-29T01:14:14;5.90;;;4.63;;
23676;SDS011;31493;49.058;12.190;2023-01-29T01:16:41;8.45;;;5.82;;
23676;SDS011;31493;49.058;12.190;2023-01-29T01:19:08;7.65;;;5.38;;
23676;SDS011;31493;49.058;12.190;2023-01-29T01:21:37;7.43;;;5.32;;
23676;SDS011;31493;49.058;12.190;2023-01-29T01:24:04;9.30;;;5.47;;
23676;SDS011;31493;49.058;12.190;2023-01-29T01:26:31;7.15;;;5.35;;
23676;SDS011;31493;49.058;12.190;2023-01-29T01:28:58;9.73;;;6.30;;
23676;SDS011;31493;49.058;12.190;2023-01-29T01:31:25;9.57;;;5.85;;
23676;SDS011;31493;49.058;12.190;2023-01-29T01:33:53;8.75;;;5.75;;
23676;SDS011;31493;49.058;12.190;2023-01-29T01:36:20;7.07;;;5.17;;
23676;SDS011;31493;49.058;12.190;2023-01-29T01:38:49;7.75;;;5.40;;
23676;SDS011;31493;49.058;12.190;2023-01-29T01:41:17;7.85;;;5.07;;
23676;SDS011;31493;49.058;12.190;2023-01-29T01:43:46;8.07;;;5.25;;
23676;SDS011;31493;49.058;12.190;2023-01-29T01:46:18;7.88;;;5.15;;
23676;SDS011;31493;49.058;12.190;2023-01-29T01:48:46;7.45;;;5.15;;
23676;SDS011;31493;49.058;12.190;2023-01-29T01:51:17;7.60;;;4.65;;
23676;SDS011;31493;49.058;12.190;2023-01-29T01:53:49;5.68;;;3.97;;
23676;SDS011;31493;49.058;12.190;2023-01-29T01:56:22;6.68;;;4.15;;
23676;SDS011;31493;49.058;12.190;2023-01-29T01:58:54;5.88;;;4.30;;
23676;SDS011;31493;49.058;12.190;2023-01-29T02:01:23;6.32;;;4.90;;
23676;SDS011;31493;49.058;12.190;2023-01-29T02:03:55;6.35;;;4.90;;
23676;SDS011;31493;49.058;12.190;2023-01-29T02:06:44;11.02;;;5.75;;
23676;SDS011;31493;49.058;12.190;2023-01-29T02:09:33;6.82;;;5.22;;
23676;SDS011;31493;49.058;12.190;2023-01-29T02:12:05;8.95;;;5.30;;
23676;SDS011;31493;49.058;12.190;2023-01-29T02:14:35;9.57;;;5.60;;
23676;SDS011;31493;49.058;12.190;2023-01-29T02:17:04;7.85;;;6.25;;
23676;SDS011;31493;49.058;12.190;2023-01-29T02:19:36;6.90;;;4.90;;
23676;SDS011;31493;49.058;12.190;2023-01-29T02:28:27;6.07;;;4.88;;
23676;SDS011;31493;49.058;12.190;2023-01-29T02:31:00;7.50;;;4.65;;
23676;SDS011;31493;49.058;12.190;2023-01-29T02:33:47;6.10;;;4.93;;
23676;SDS011;31493;49.058;12.190;2023-01-29T02:36:24;6.13;;;4.60;;
23676;SDS011;31493;49.058;12.190;2023-01-29T02:38:59;7.20;;;4.88;;
23676;SDS011;31493;49.058;12.190;2023-01-29T02:41:31;7.47;;;5.07;;
23676;SDS011;31493;49.058;12.190;2023-01-29T02:44:07;6.70;;;5.22;;
23676;SDS011;31493;49.058;12.190;2023-01-29T02:46:44;6.57;;;5.00;;
23676;SDS011;31493;49.058;12.190;2023-01-29T02:49:18;7.63;;;4.97;;
23676;SDS011;31493;49.058;12.190;2023-01-29T02:51:51;6.90;;;4.80;;
23676;SDS011;31493;49.058;12.190;2023-01-29T02:54:27;8.30;;;5.60;;
23676;SDS011;31493;49.058;12.190;2023-01-29T02:57:03;8.65;;;5.05;;
23676;SDS011;31493;49.058;12.190;2023-01-29T02:59:35;7.60;;;4.90;;
23676;SDS011;31493;49.058;12.190;2023-01-29T03:02:08;6.28;;;4.72;;
23676;SDS011;31493;49.058;12.190;2023-01-29T03:04:42;7.32;;;4.85;;
23676;SDS011;31493;49.058;12.190;2023-01-29T03:07:14;7.78;;;5.40;;
23676;SDS011;31493;49.058;12.190;2023-01-29T03:10:06;5.50;;;4.28;;
23676;SDS011;31493;49.058;12.190;2023-01-29T03:12:38;6.50;;;4.55;;
23676;SDS011;31493;49.058;12.190;2023-01-29T03:15:09;6.60;;;4.57;;
23676;SDS011;31493;49.058;12.190;2023-01-29T03:17:43;7.57;;;4.97;;
23676;SDS011;31493;49.058;12.190;2023-01-29T03:20:15;8.07;;;5.30;;
23676;SDS011;31493;49.058;12.190;2023-01-29T03:22:47;7.32;;;5.22;;
23676;SDS011;31493;49.058;12.190;2023-01-29T03:25:17;8.27;;;5.07;;
23676;SDS011;31493;49.058;12.190;2023-01-29T03:28:04;6.28;;;4.55;;
23676;SDS011;31493;49.058;12.190;2023-01-29T03:30:52;8.27;;;4.93;;
23676;SDS011;31493;49.058;12.190;2023-01-29T03:33:39;4.32;;;3.38;;
23676;SDS011;31493;49.058;12.190;2023-01-29T03:36:13;6.97;;;4.75;;
23676;SDS011;31493;49.058;12.190;2023-01-29T03:38:44;5.95;;;4.57;;
23676;SDS011;31493;49.058;12.190;2023-01-29T03:41:13;7.25;;;5.13;;
23676;SDS011;31493;49.058;12.190;2023-01-29T03:43:49;6.78;;;4.75;;
23676;SDS011;31493;49.058;12.190;2023-01-29T03:46:24;7.05;;;5.10;;
23676;SDS011;31493;49.058;12.190;2023-01-29T03:48:57;7.25;;;4.72;;
23676;SDS011;31493;49.058;12.190;2023-01-29T03:51:35;7.40;;;4.60;;
23676;SDS011;31493;49.058;12.190;2023-01-29T03:54:05;7.43;;;5.30;;
23676;SDS011;31493;49.058;12.190;2023-01-29T03:56:42;6.97;;;4.78;;
23676;SDS011;31493;49.058;12.190;2023-01-29T03:59:22;6.63;;;4.97;;
23676;SDS011;31493;49.058;12.190;2023-01-29T04:02:00;5.18;;;4.38;;
23676;SDS011;31493;49.058;12.190;2023-01-29T04:04:32;6.53;;;4.40;;
23676;SDS011;31493;49.058;12.190;2023-01-29T04:07:03;6.45;;;4.85;;
23676;SDS011;31493;49.058;12.190;2023-01-29T04:09:35;7.43;;;5.00;;
23676;SDS011;31493;49.058;12.190;2023-01-29T04:12:08;7.45;;;4.88;;
23676;SDS011;31493;49.058;12.190;2023-01-29T04:14:37;6.68;;;5.20;;
23676;SDS011;31493;49.058;12.190;2023-01-29T04:17:08;7.13;;;5.03;;
23676;SDS011;31493;49.058;12.190;2023-01-29T04:19:38;7.43;;;5.13;;
23676;SDS011;31493;49.058;12.190;2023-01-29T04:22:14;6.65;;;4.63;;
23676;SDS011;31493;49.058;12.190;2023-01-29T04:24:46;6.75;;;5.03;;
23676;SDS011;31493;49.058;12.190;2023-01-29T04:27:19;6.25;;;4.63;;
23676;SDS011;31493;49.058;12.190;2023-01-29T04:30:03;6.82;;;5.28;;
23676;SDS011;31493;49.058;12.190;2023-01-29T04:32:47;6.75;;;4.85;;
23676;SDS011;31493;49.058;12.190;2023-01-29T04:35:25;7.25;;;5.15;;
23676;SDS011;31493;49.058;12.190;2023-01-29T04:38:00;8.85;;;4.95;;
23676;SDS011;31493;49.058;12.190;2023-01-29T04:40:37;6.30;;;4.65;;
23676;SDS011;31493;49.058;12.190;2023-01-29T04:43:12;9.00;;;4.90;;
23676;SDS011;31493;49.058;12.190;2023-01-29T04:45:48;6.70;;;4.65;;
23676;SDS011;31493;49.058;12.190;2023-01-29T04:48:29;5.65;;;4.72;;
23676;SDS011;31493;49.058;12.190;2023-01-29T04:51:05;6.47;;;4.88;;
23676;SDS011;31493;49.058;12.190;2023-01-29T04:53:37;6.85;;;4.53;;
23676;SDS011;31493;49.058;12.190;2023-01-29T04:56:13;6.78;;;5.40;;
23676;SDS011;31493;49.058;12.190;2023-01-29T04:58:46;6.72;;;4.88;;
23676;SDS011;31493;49.058;12.190;2023-01-29T05:01:18;6.60;;;4.72;;
23676;SDS011;31493;49.058;12.190;2023-01-29T05:03:51;6.80;;;4.82;;
23676;SDS011;31493;49.058;12.190;2023-01-29T05:06:21;7.55;;;5.15;;
23676;SDS011;31493;49.058;12.190;2023-01-29T05:08:50;5.35;;;4.50;;
23676;SDS011;31493;49.058;12.190;2023-01-29T05:11:18;7.57;;;5.00;;
23676;SDS011;31493;49.058;12.190;2023-01-29T05:13:45;4.33;;;3.57;;
23676;SDS011;31493;49.058;12.190;2023-01-29T05:16:15;6.63;;;5.15;;
23676;SDS011;31493;49.058;12.190;2023-01-29T05:18:47;5.90;;;4.60;;
23676;SDS011;31493;49.058;12.190;2023-01-29T05:21:16;6.97;;;5.18;;
23676;SDS011;31493;49.058;12.190;2023-01-29T05:23:44;8.25;;;5.13;;
23676;SDS011;31493;49.058;12.190;2023-01-29T05:26:21;8.02;;;5.32;;
23676;SDS011;31493;49.058;12.190;2023-01-29T05:29:06;7.22;;;5.28;;
23676;SDS011;31493;49.058;12.190;2023-01-29T05:31:33;7.18;;;5.10;;
23676;SDS011;31493;49.058;12.190;2023-01-29T05:34:00;7.90;;;5.50;;
23676;SDS011;31493;49.058;12.190;2023-01-29T05:36:29;6.97;;;5.00;;
23676;SDS011;31493;49.058;12.190;2023-01-29T05:38:56;6.80;;;5.13;;
23676;SDS011;31493;49.058;12.190;2023-01-29T05:41:23;6.55;;;5.20;;
23676;SDS011;31493;49.058;12.190;2023-01-29T05:43:50;8.10;;;5.50;;
23676;SDS011;31493;49.058;12.190;2023-01-29T05:46:17;6.85;;;5.20;;
23676;SDS011;31493;49.058;12.190;2023-01-29T05:48:44;8.20;;;4.95;;
23676;SDS011;31493;49.058;12.190;2023-01-29T05:51:11;7.57;;;5.55;;
23676;SDS011;31493;49.058;12.190;2023-01-29T05:53:39;6.05;;;4.60;;
23676;SDS011;31493;49.058;12.190;2023-01-29T05:56:06;6.32;;;4.25;;
23676;SDS011;31493;49.058;12.190;2023-01-29T05:58:34;6.97;;;4.75;;
23676;SDS011;31493;49.058;12.190;2023-01-29T06:01:10;6.20;;;4.57;;
23676;SDS011;31493;49.058;12.190;2023-01-29T06:03:38;7.05;;;4.80;;
23676;SDS011;31493;49.058;12.190;2023-01-29T06:06:06;6.28;;;4.82;;
23676;SDS011;31493;49.058;12.190;2023-01-29T06:08:33;6.18;;;4.68;;
23676;SDS011;31493;49.058;12.190;2023-01-29T06:11:02;8.38;;;4.78;;
23676;SDS011;31493;49.058;12.190;2023-01-29T06:13:29;6.28;;;5.05;;
23676;SDS011;31493;49.058;12.190;2023-01-29T06:15:56;5.40;;;4.38;;
23676;SDS011;31493;49.058;12.190;2023-01-29T06:18:23;5.85;;;4.22;;
23676;SDS011;31493;49.058;12.190;2023-01-29T06:20:50;5.53;;;4.38;;
23676;SDS011;31493;49.058;12.190;2023-01-29T06:23:17;5.65;;;4.78;;
23676;SDS011;31493;49.058;12.190;2023-01-29T06:25:44;7.03;;;4.43;;
23676;SDS011;31493;49.058;12.190;2023-01-29T06:28:12;6.20;;;4.57;;
23676;SDS011;31493;49.058;12.190;2023-01-29T06:30:39;6.82;;;4.72;;
23676;SDS011;31493;49.058;12.190;2023-01-29T06:33:06;5.22;;;4.35;;
23676;SDS011;31493;49.058;12.190;2023-01-29T06:35:33;6.50;;;4.38;;
23676;SDS011;31493;49.058;12.190;2023-01-29T06:38:00;6.47;;;4.50;;
23676;SDS011;31493;49.058;12.190;2023-01-29T06:40:27;5.60;;;4.45;;
23676;SDS011;31493;49.058;12.190;2023-01-29T06:42:54;6.65;;;4.55;;
23676;SDS011;31493;49.058;12.190;2023-01-29T06:45:23;5.55;;;4.40;;
23676;SDS011;31493;49.058;12.190;2023-01-29T06:47:50;6.95;;;4.82;;
23676;SDS011;31493;49.058;12.190;2023-01-29T06:50:17;5.88;;;4.43;;
23676;SDS011;31493;49.058;12.190;2023-01-29T06:52:44;6.82;;;5.03;;
23676;SDS011;31493;49.058;12.190;2023-01-29T06:55:11;7.88;;;5.20;;
23676;SDS011;31493;49.058;12.190;2023-01-29T06:57:38;6.47;;;4.80;;
23676;SDS011;31493;49.058;12.190;2023-01-29T07:00:06;5.90;;;4.63;;
23676;SDS011;31493;49.058;12.190;2023-01-29T07:02:36;7.60;;;5.45;;
23676;SDS011;31493;49.058;12.190;2023-01-29T07:05:03;7.22;;;5.15;;
23676;SDS011;31493;49.058;12.190;2023-01-29T07:07:30;6.55;;;5.50;;
23676;SDS011;31493;49.058;12.190;2023-01-29T07:09:57;6.50;;;5.05;;
23676;SDS011;31493;49.058;12.190;2023-01-29T07:12:24;6.95;;;5.22;;
23676;SDS011;31493;49.058;12.190;2023-01-29T07:14:51;7.78;;;5.68;;
23676;SDS011;31493;49.058;12.190;2023-01-29T07:17:18;7.00;;;5.30;;
23676;SDS011;31493;49.058;12.190;2023-01-29T07:19:47;6.88;;;5.57;;
23676;SDS011;31493;49.058;12.190;2023-01-29T07:22:14;9.05;;;5.45;;
23676;SDS011;31493;49.058;12.190;2023-01-29T07:24:42;6.53;;;5.28;;
23676;SDS011;31493;49.058;12.190;2023-01-29T07:27:09;8.25;;;5.72;;
23676;SDS011;31493;49.058;12.190;2023-01-29T07:29:36;7.60;;;5.60;;
23676;SDS011;31493;49.058;12.190;2023-01-29T07:32:03;6.78;;;5.47;;
23676;SDS011;31493;49.058;12.190;2023-01-29T07:34:30;6.80;;;5.30;;
23676;SDS011;31493;49.058;12.190;2023-01-29T07:36:58;7.15;;;5.68;;
23676;SDS011;31493;49.058;12.190;2023-01-29T07:39:25;7.03;;;5.22;;
23676;SDS011;31493;49.058;12.190;2023-01-29T07:41:52;8.05;;;6.20;;
23676;SDS011;31493;49.058;12.190;2023-01-29T07:44:19;7.55;;;5.72;;
23676;SDS011;31493;49.058;12.190;2023-01-29T07:46:47;8.93;;;5.75;;
23676;SDS011;31493;49.058;12.190;2023-01-29T07:49:14;7.97;;;5.70;;
23676;SDS011;31493;49.058;12.190;2023-01-29T07:51:41;8.45;;;5.80;;
23676;SDS011;31493;49.058;12.190;2023-01-29T07:54:09;8.63;;;6.10;;
23676;SDS011;31493;49.058;12.190;2023-01-29T07:56:36;10.63;;;5.60;;
23676;SDS011;31493;49.058;12.190;2023-01-29T07:59:03;8.68;;;6.07;;
23676;SDS011;31493;49.058;12.190;2023-01-29T08:01:30;6.93;;;5.18;;
23676;SDS011;31493;49.058;12.190;2023-01-29T08:03:57;9.85;;;7.03;;
23676;SDS011;31493;49.058;12.190;2023-01-29T08:06:24;13.00;;;7.32;;
23676;SDS011;31493;49.058;12.190;2023-01-29T08:08:51;11.05;;;7.32;;
23676;SDS011;31493;49.058;12.190;2023-01-29T08:11:21;8.75;;;6.68;;
23676;SDS011;31493;49.058;12.190;2023-01-29T08:13:48;10.20;;;6.82;;
23676;SDS011;31493;49.058;12.190;2023-01-29T08:16:16;8.52;;;6.63;;
23676;SDS011;31493;49.058;12.190;2023-01-29T08:18:43;8.52;;;6.43;;
23676;SDS011;31493;49.058;12.190;2023-01-29T08:21:12;8.65;;;7.22;;
23676;SDS011;31493;49.058;12.190;2023-01-29T08:23:39;9.45;;;6.75;;
23676;SDS011;31493;49.058;12.190;2023-01-29T08:26:06;9.25;;;6.82;;
23676;SDS011;31493;49.058;12.190;2023-01-29T08:28:36;11.20;;;7.50;;
23676;SDS011;31493;49.058;12.190;2023-01-29T08:31:03;10.10;;;7.50;;
23676;SDS011;31493;49.058;12.190;2023-01-29T08:33:38;12.85;;;7.85;;
23676;SDS011;31493;49.058;12.190;2023-01-29T08:36:06;12.35;;;8.25;;
23676;SDS011;31493;49.058;12.190;2023-01-29T08:38:33;11.25;;;8.52;;
23676;SDS011;31493;49.058;12.190;2023-01-29T08:41:01;12.40;;;8.00;;
23676;SDS011;31493;49.058;12.190;2023-01-29T08:43:28;12.02;;;8.30;;
23676;SDS011;31493;49.058;12.190;2023-01-29T08:45:56;13.25;;;8.88;;
23676;SDS011;31493;49.058;12.190;2023-01-29T08:48:23;11.10;;;7.57;;
23676;SDS011;31493;49.058;12.190;2023-01-29T08:50:50;11.15;;;8.23;;
23676;SDS011;31493;49.058;12.190;2023-01-29T08:53:17;13.15;;;8.85;;
23676;SDS011;31493;49.058;12.190;2023-01-29T08:55:48;11.18;;;8.02;;
23676;SDS011;31493;49.058;12.190;2023-01-29T08:58:16;13.27;;;8.60;;
23676;SDS011;31493;49.058;12.190;2023-01-29T09:00:43;12.23;;;8.32;;
23676;SDS011;31493;49.058;12.190;2023-01-29T09:03:11;11.80;;;8.10;;
23676;SDS011;31493;49.058;12.190;2023-01-29T09:08:06;11.98;;;8.13;;
23676;SDS011;31493;49.058;12.190;2023-01-29T09:10:34;10.00;;;7.72;;
23676;SDS011;31493;49.058;12.190;2023-01-29T09:13:01;12.85;;;8.45;;
23676;SDS011;31493;49.058;12.190;2023-01-29T09:15:28;12.70;;;8.55;;
23676;SDS011;31493;49.058;12.190;2023-01-29T09:17:56;12.55;;;8.32;;
23676;SDS011;31493;49.058;12.190;2023-01-29T09:20:24;12.38;;;8.63;;
23676;SDS011;31493;49.058;12.190;2023-01-29T09:22:51;11.35;;;8.75;;
23676;SDS011;31493;49.058;12.190;2023-01-29T09:25:21;10.93;;;8.02;;
23676;SDS011;31493;49.058;12.190;2023-01-29T09:27:48;10.25;;;7.70;;
23676;SDS011;31493;49.058;12.190;2023-01-29T09:30:15;12.13;;;8.85;;
23676;SDS011;31493;49.058;12.190;2023-01-29T09:32:43;15.02;;;9.38;;
23676;SDS011;31493;49.058;12.190;2023-01-29T09:35:10;11.88;;;8.85;;
23676;SDS011;31493;49.058;12.190;2023-01-29T09:37:38;12.35;;;9.05;;
23676;SDS011;31493;49.058;12.190;2023-01-29T09:40:06;13.85;;;10.05;;
23676;SDS011;31493;49.058;12.190;2023-01-29T09:42:42;14.60;;;10.25;;
23676;SDS011;31493;49.058;12.190;2023-01-29T09:45:15;11.52;;;8.65;;
23676;SDS011;31493;49.058;12.190;2023-01-29T09:47:49;13.15;;;9.63;;
23676;SDS011;31493;49.058;12.190;2023-01-29T09:50:17;9.00;;;6.93;;
23676;SDS011;31493;49.058;12.190;2023-01-29T09:52:51;14.13;;;9.55;;
23676;SDS011;31493;49.058;12.190;2023-01-29T09:55:24;15.82;;;9.48;;
23676;SDS011;31493;49.058;12.190;2023-01-29T09:57:53;12.68;;;9.85;;
23676;SDS011;31493;49.058;12.190;2023-01-29T10:00:23;12.30;;;9.18;;
23676;SDS011;31493;49.058;12.190;2023-01-29T10:03:02;15.15;;;10.65;;
23676;SDS011;31493;49.058;12.190;2023-01-29T10:05:41;14.23;;;10.40;;
23676;SDS011;31493;49.058;12.190;2023-01-29T10:11:31;13.73;;;9.93;;
23676;SDS011;31493;49.058;12.190;2023-01-29T10:14:10;14.57;;;10.80;;
23676;SDS011;31493;49.058;12.190;2023-01-29T10:16:45;13.32;;;9.63;;
23676;SDS011;31493;49.058;12.190;2023-01-29T10:19:28;11.57;;;8.98;;
23676;SDS011;31493;49.058;12.190;2023-01-29T10:22:31;12.93;;;9.27;;
23676;SDS011;31493;49.058;12.190;2023-01-29T10:25:16;13.45;;;9.95;;
23676;SDS011;31493;49.058;12.190;2023-01-29T10:27:46;14.25;;;9.60;;
23676;SDS011;31493;49.058;12.190;2023-01-29T10:30:20;27.20;;;20.15;;
23676;SDS011;31493;49.058;12.190;2023-01-29T10:32:53;18.35;;;12.70;;
23676;SDS011;31493;49.058;12.190;2023-01-29T10:35:22;15.48;;;10.10;;
23676;SDS011;31493;49.058;12.190;2023-01-29T10:37:53;14.68;;;10.70;;
23676;SDS011;31493;49.058;12.190;2023-01-29T10:40:22;13.30;;;9.55;;
23676;SDS011;31493;49.058;12.190;2023-01-29T10:42:55;13.80;;;9.75;;
23676;SDS011;31493;49.058;12.190;2023-01-29T10:45:28;13.20;;;9.80;;
23676;SDS011;31493;49.058;12.190;2023-01-29T10:51:14;12.95;;;9.98;;
23676;SDS011;31493;49.058;12.190;2023-01-29T10:53:54;15.60;;;10.07;;
23676;SDS011;31493;49.058;12.190;2023-01-29T10:56:36;13.52;;;9.82;;
23676;SDS011;31493;49.058;12.190;2023-01-29T10:59:22;12.57;;;9.15;;
23676;SDS011;31493;49.058;12.190;2023-01-29T11:01:59;13.50;;;9.63;;
23676;SDS011;31493;49.058;12.190;2023-01-29T11:04:28;14.53;;;10.10;;
23676;SDS011;31493;49.058;12.190;2023-01-29T11:06:57;12.70;;;9.23;;
23676;SDS011;31493;49.058;12.190;2023-01-29T11:09:26;11.50;;;7.65;;
23676;SDS011;31493;49.058;12.190;2023-01-29T11:11:59;14.38;;;10.23;;
23676;SDS011;31493;49.058;12.190;2023-01-29T11:14:36;16.20;;;10.85;;
23676;SDS011;31493;49.058;12.190;2023-01-29T11:17:13;14.73;;;10.85;;
23676;SDS011;31493;49.058;12.190;2023-01-29T11:19:42;15.52;;;10.45;;
23676;SDS011;31493;49.058;12.190;2023-01-29T11:22:12;21.95;;;15.10;;
23676;SDS011;31493;49.058;12.190;2023-01-29T11:24:40;13.57;;;8.95;;
23676;SDS011;31493;49.058;12.190;2023-01-29T11:27:14;19.63;;;13.88;;
23676;SDS011;31493;49.058;12.190;2023-01-29T11:29:50;15.40;;;9.50;;
23676;SDS011;31493;49.058;12.190;2023-01-29T11:32:23;13.88;;;9.98;;
23676;SDS011;31493;49.058;12.190;2023-01-29T11:34:57;15.15;;;9.43;;
23676;SDS011;31493;49.058;12.190;2023-01-29T11:37:34;14.13;;;9.68;;
23676;SDS011;31493;49.058;12.190;2023-01-29T11:43:18;16.02;;;8.77;;
23676;SDS011;31493;49.058;12.190;2023-01-29T11:45:47;12.35;;;9.50;;
23676;SDS011;31493;49.058;12.190;2023-01-29T11:48:16;13.10;;;9.52;;
23676;SDS011;31493;49.058;12.190;2023-01-29T11:50:50;14.70;;;9.63;;
23676;SDS011;31493;49.058;12.190;2023-01-29T11:53:23;13.25;;;9.02;;
23676;SDS011;31493;49.058;12.190;2023-01-29T11:55:59;13.50;;;9.82;;
23676;SDS011;31493;49.058;12.190;2023-01-29T11:58:32;12.70;;;9.43;;
23676;SDS011;31493;49.058;12.190;2023-01-29T12:01:01;11.05;;;7.90;;
23676;SDS011;31493;49.058;12.190;2023-01-29T12:03:31;11.80;;;8.48;;
23676;SDS011;31493;49.058;12.190;2023-01-29T12:06:01;15.07;;;9.32;;
23676;SDS011;31493;49.058;12.190;2023-01-29T12:08:33;15.20;;;9.45;;
23676;SDS011;31493;49.058;12.190;2023-01-29T12:11:06;13.13;;;8.93;;
23676;SDS011;31493;49.058;12.190;2023-01-29T12:13:37;13.27;;;10.00;;
23676;SDS011;31493;49.058;12.190;2023-01-29T12:16:12;12.45;;;10.05;;
23676;SDS011;31493;49.058;12.190;2023-01-29T12:18:45;13.05;;;9.13;;
23676;SDS011;31493;49.058;12.190;2023-01-29T12:21:19;13.07;;;9.27;;
23676;SDS011;31493;49.058;12.190;2023-01-29T12:23:53;16.50;;;8.63;;
23676;SDS011;31493;49.058;12.190;2023-01-29T12:26:28;12.73;;;8.77;;
23676;SDS011;31493;49.058;12.190;2023-01-29T12:29:18;10.77;;;8.10;;
23676;SDS011;31493;49.058;12.190;2023-01-29T12:31:54;11.40;;;9.00;;
23676;SDS011;31493;49.058;12.190;2023-01-29T12:34:34;14.50;;;7.82;;
23676;SDS011;31493;49.058;12.190;2023-01-29T12:37:11;11.15;;;8.02;;
23676;SDS011;31493;49.058;12.190;2023-01-29T12:39:44;12.82;;;8.45;;
23676;SDS011;31493;49.058;12.190;2023-01-29T12:42:12;11.82;;;8.98;;
23676;SDS011;31493;49.058;12.190;2023-01-29T12:44:45;12.75;;;9.30;;
23676;SDS011;31493;49.058;12.190;2023-01-29T12:47:18;12.73;;;9.00;;
23676;SDS011;31493;49.058;12.190;2023-01-29T12:49:50;13.05;;;9.10;;
23676;SDS011;31493;49.058;12.190;2023-01-29T12:52:21;12.32;;;9.23;;
23676;SDS011;31493;49.058;12.190;2023-01-29T12:54:54;11.88;;;9.15;;
23676;SDS011;31493;49.058;12.190;2023-01-29T12:57:28;12.00;;;8.88;;
23676;SDS011;31493;49.058;12.190;2023-01-29T13:00:04;12.73;;;9.60;;
23676;SDS011;31493;49.058;12.190;2023-01-29T13:02:36;11.80;;;8.13;;
23676;SDS011;31493;49.058;12.190;2023-01-29T13:05:14;11.30;;;8.27;;
23676;SDS011;31493;49.058;12.190;2023-01-29T13:07:46;13.05;;;9.35;;
23676;SDS011;31493;49.058;12.190;2023-01-29T13:10:19;13.20;;;8.90;;
23676;SDS011;31493;49.058;12.190;2023-01-29T13:12:53;14.13;;;9.00;;
23676;SDS011;31493;49.058;12.190;2023-01-29T13:15:27;12.95;;;9.15;;
23676;SDS011;31493;49.058;12.190;2023-01-29T13:17:58;11.93;;;8.75;;
23676;SDS011;31493;49.058;12.190;2023-01-29T13:20:40;12.48;;;9.15;;
23676;SDS011;31493;49.058;12.190;2023-01-29T13:23:13;12.93;;;8.95;;
23676;SDS011;31493;49.058;12.190;2023-01-29T13:25:44;12.50;;;8.75;;
23676;SDS011;31493;49.058;12.190;2023-01-29T13:28:15;11.85;;;9.20;;
23676;SDS011;31493;49.058;12.190;2023-01-29T13:30:45;14.02;;;9.07;;
23676;SDS011;31493;49.058;12.190;2023-01-29T13:33:15;11.93;;;9.07;;
23676;SDS011;31493;49.058;12.190;2023-01-29T13:35:48;13.35;;;9.23;;
23676;SDS011;31493;49.058;12.190;2023-01-29T13:38:31;12.23;;;9.13;;
23676;SDS011;31493;49.058;12.190;2023-01-29T13:41:01;13.98;;;9.40;;
23676;SDS011;31493;49.058;12.190;2023-01-29T13:43:32;13.38;;;9.98;;
23676;SDS011;31493;49.058;12.190;2023-01-29T13:46:07;12.73;;;9.32;;
23676;SDS011;31493;49.058;12.190;2023-01-29T13:48:40;12.73;;;9.57;;
23676;SDS011;31493;49.058;12.190;2023-01-29T13:51:09;12.10;;;9.20;;
23676;SDS011;31493;49.058;12.190;2023-01-29T13:53:41;13.27;;;9.70;;
23676;SDS011;31493;49.058;12.190;2023-01-29T13:56:29;11.65;;;9.23;;
23676;SDS011;31493;49.058;12.190;2023-01-29T13:59:08;11.93;;;8.80;;
23676;SDS011;31493;49.058;12.190;2023-01-29T14:02:01;13.13;;;9.65;;
23676;SDS011;31493;49.058;12.190;2023-01-29T14:04:45;12.95;;;8.95;;
23676;SDS011;31493;49.058;12.190;2023-01-29T14:10:12;14.05;;;9.75;;
23676;SDS011;31493;49.058;12.190;2023-01-29T14:12:42;15.57;;;10.05;;
23676;SDS011;31493;49.058;12.190;2023-01-29T14:18:02;12.90;;;9.25;;
23676;SDS011;31493;49.058;12.190;2023-01-29T14:20:36;13.77;;;9.50;;
23676;SDS011;31493;49.058;12.190;2023-01-29T14:23:06;15.30;;;9.70;;
23676;SDS011;31493;49.058;12.190;2023-01-29T14:25:45;12.55;;;9.25;;
23676;SDS011;31493;49.058;12.190;2023-01-29T14:28:14;12.77;;;9.20;;
23676;SDS011;31493;49.058;12.190;2023-01-29T14:30:46;13.80;;;10.00;;
23676;SDS011;31493;49.058;12.190;2023-01-29T14:33:23;11.35;;;8.82;;
23676;SDS011;31493;49.058;12.190;2023-01-29T14:35:53;12.50;;;9.30;;
23676;SDS011;31493;49.058;12.190;2023-01-29T14:38:22;12.85;;;9.38;;
23676;SDS011;31493;49.058;12.190;2023-01-29T14:40:59;14.50;;;9.40;;
23676;SDS011;31493;49.058;12.190;2023-01-29T14:43:30;13.07;;;9.38;;
23676;SDS011;31493;49.058;12.190;2023-01-29T14:46:03;12.90;;;9.23;;
23676;SDS011;31493;49.058;12.190;2023-01-29T14:49:10;13.70;;;9.82;;
23676;SDS011;31493;49.058;12.190;2023-01-29T14:51:39;16.25;;;9.98;;
23676;SDS011;31493;49.058;12.190;2023-01-29T14:54:21;14.30;;;9.75;;
23676;SDS011;31493;49.058;12.190;2023-01-29T14:56:55;17.85;;;10.02;;
23676;SDS011;31493;49.058;12.190;2023-01-29T14:59:27;13.10;;;9.48;;
23676;SDS011;31493;49.058;12.190;2023-01-29T15:01:59;12.98;;;8.95;;
23676;SDS011;31493;49.058;12.190;2023-01-29T15:04:31;13.57;;;9.48;;
23676;SDS011;31493;49.058;12.190;2023-01-29T15:07:05;12.65;;;9.15;;
23676;SDS011;31493;49.058;12.190;2023-01-29T15:09:41;13.57;;;8.75;;
23676;SDS011;31493;49.058;12.190;2023-01-29T15:12:16;13.93;;;9.32;;
23676;SDS011;31493;49.058;12.190;2023-01-29T15:14:50;13.43;;;9.70;;
23676;SDS011;31493;49.058;12.190;2023-01-29T15:17:26;13.20;;;9.45;;
23676;SDS011;31493;49.058;12.190;2023-01-29T15:19:57;13.35;;;9.32;;